createdAt,value
2017-11-14T00:01:59.861Z,12.00
2017-11-14T00:04:27.483Z,12.63
2017-11-14T00:06:55.112Z,12.88
2017-11-14T00:09:23.753Z,12.93
2017-11-14T00:11:51.368Z,11.38
2017-11-14T00:14:18.929Z,11.25
2017-11-14T00:16:46.532Z,11.35
2017-11-14T00:19:14.131Z,11.50
2017-11-14T00:21:42.867Z,11.20
2017-11-14T00:24:10.458Z,12.55
2017-11-14T00:26:38.013Z,12.20
2017-11-14T00:29:05.612Z,12.63
2017-11-14T00:31:33.217Z,10.95
2017-11-14T00:34:00.865Z,11.98
2017-11-14T00:36:28.428Z,12.15
2017-11-14T00:38:56.046Z,11.80
2017-11-14T00:41:24.460Z,12.27
2017-11-14T00:43:52.044Z,11.32
2017-11-14T00:46:19.654Z,12.50
2017-11-14T00:48:48.271Z,11.82
2017-11-14T00:51:15.964Z,12.85
2017-11-14T00:53:43.575Z,13.10
2017-11-14T00:56:11.123Z,13.48
2017-11-14T00:58:38.711Z,13.77
2017-11-14T01:01:06.261Z,12.70
2017-11-14T01:03:33.895Z,13.52
2017-11-14T01:06:01.462Z,12.93
2017-11-14T01:08:33.472Z,13.05
2017-11-14T01:11:02.816Z,13.62
2017-11-14T01:13:30.453Z,13.82
2017-11-14T01:15:58.304Z,15.40
2017-11-14T01:18:26.149Z,13.62
2017-11-14T01:20:54.042Z,14.95
2017-11-14T01:23:21.647Z,15.35
2017-11-14T01:25:50.937Z,14.43
2017-11-14T01:28:18.598Z,14.55
2017-11-14T01:30:47.059Z,13.85
2017-11-14T01:33:15.137Z,14.20
2017-11-14T01:35:43.032Z,15.15
2017-11-14T01:38:11.436Z,14.95
2017-11-14T01:40:39.008Z,14.80
2017-11-14T01:43:06.681Z,14.73
2017-11-14T01:45:34.612Z,14.35
2017-11-14T01:48:02.225Z,14.85
2017-11-14T01:50:31.864Z,14.35
2017-11-14T01:53:00.568Z,15.73
2017-11-14T01:55:28.172Z,14.98
2017-11-14T01:57:58.242Z,15.80
2017-11-14T02:00:37.980Z,15.18
2017-11-14T02:08:09.263Z,17.10
2017-11-14T02:10:37.587Z,15.50
2017-11-14T02:15:37.240Z,15.25
2017-11-14T02:18:05.665Z,17.58
2017-11-14T02:20:34.984Z,14.45
2017-11-14T02:23:03.032Z,15.80
2017-11-14T02:25:30.892Z,15.38
2017-11-14T02:27:58.545Z,14.57
2017-11-14T02:30:26.181Z,14.95
2017-11-14T02:35:26.029Z,14.87
2017-11-14T02:37:55.330Z,16.40
2017-11-14T02:40:23.406Z,14.60
2017-11-14T02:45:23.687Z,14.55
2017-11-14T02:47:51.332Z,16.08
2017-11-14T02:50:18.983Z,16.30
2017-11-14T02:52:46.660Z,16.12
2017-11-14T02:55:14.275Z,16.48
2017-11-14T02:57:43.476Z,15.60
2017-11-14T03:00:11.093Z,16.75
2017-11-14T03:02:38.944Z,17.10
2017-11-14T03:05:06.647Z,17.42
2017-11-14T03:07:34.230Z,17.50
2017-11-14T03:10:02.082Z,16.35
2017-11-14T03:12:30.012Z,17.45
2017-11-14T03:14:57.748Z,16.58
2017-11-14T03:17:27.069Z,16.45
2017-11-14T03:19:58.364Z,15.90
2017-11-14T03:22:29.695Z,16.90
2017-11-14T03:24:57.532Z,17.00
2017-11-14T03:27:25.379Z,17.67
2017-11-14T03:29:57.445Z,18.10
2017-11-14T03:32:26.141Z,16.12
2017-11-14T03:34:54.045Z,17.98
2017-11-14T03:37:21.700Z,17.00
2017-11-14T03:39:49.770Z,15.77
2017-11-14T03:42:21.240Z,16.85
2017-11-14T03:44:48.861Z,15.43
2017-11-14T03:49:48.503Z,17.33
2017-11-14T03:52:17.089Z,16.75
2017-11-14T03:54:44.661Z,16.15
2017-11-14T03:57:12.357Z,17.37
2017-11-14T03:59:39.956Z,18.10
2017-11-14T04:02:08.542Z,18.17
2017-11-14T04:04:37.036Z,16.62
2017-11-14T04:07:04.914Z,16.35
2017-11-14T04:09:32.803Z,16.40
2017-11-14T04:12:00.854Z,16.77
2017-11-14T04:14:28.540Z,17.83
2017-11-14T04:16:56.518Z,18.67
2017-11-14T04:19:24.281Z,18.50
2017-11-14T04:21:52.136Z,18.35
2017-11-14T04:24:19.965Z,17.48
2017-11-14T04:26:48.033Z,17.92
2017-11-14T04:29:16.614Z,17.67
2017-11-14T04:31:44.421Z,17.05
2017-11-14T04:34:12.259Z,17.42
2017-11-14T04:36:40.276Z,16.52
2017-11-14T04:39:08.071Z,18.50
2017-11-14T04:41:36.105Z,16.95
2017-11-14T04:44:03.931Z,17.70
2017-11-14T04:46:32.312Z,19.35
2017-11-14T04:49:00.285Z,17.05
2017-11-14T04:51:28.115Z,16.25
2017-11-14T04:53:56.508Z,16.98
2017-11-14T04:56:24.089Z,16.25
2017-11-14T04:58:51.940Z,16.60
2017-11-14T05:01:19.972Z,16.40
2017-11-14T05:03:48.313Z,14.80
2017-11-14T05:06:17.641Z,15.82
2017-11-14T05:08:45.275Z,15.35
2017-11-14T05:11:12.970Z,16.25
2017-11-14T05:13:40.848Z,17.00
2017-11-14T05:16:08.490Z,17.45
2017-11-14T05:18:36.075Z,16.37
2017-11-14T05:21:04.436Z,16.87
2017-11-14T05:23:33.232Z,16.60
2017-11-14T05:26:00.862Z,16.60
2017-11-14T05:28:29.171Z,16.33
2017-11-14T05:30:56.728Z,18.50
2017-11-14T05:33:24.372Z,17.35
2017-11-14T05:35:51.969Z,17.45
2017-11-14T05:38:21.152Z,17.17
2017-11-14T05:40:50.437Z,18.10
2017-11-14T05:43:18.811Z,18.05
2017-11-14T05:48:20.065Z,19.25
2017-11-14T05:50:48.504Z,18.90
2017-11-14T05:53:16.908Z,20.02
2017-11-14T05:55:45.560Z,17.10
2017-11-14T05:58:14.999Z,17.08
2017-11-14T06:00:43.392Z,18.73
2017-11-14T06:03:11.200Z,18.60
2017-11-14T06:08:13.544Z,18.85
2017-11-14T06:10:41.188Z,18.15
2017-11-14T06:13:09.215Z,19.33
2017-11-14T06:15:36.800Z,18.48
2017-11-14T06:18:04.445Z,18.30
2017-11-14T06:20:32.848Z,18.08
2017-11-14T06:23:00.440Z,18.37
2017-11-14T06:25:28.800Z,16.62
2017-11-14T06:27:56.989Z,18.15
2017-11-14T06:30:24.952Z,18.70
2017-11-14T06:32:52.953Z,17.60
2017-11-14T06:35:21.368Z,19.15
2017-11-14T06:37:49.812Z,17.90
2017-11-14T06:40:17.662Z,18.75
2017-11-14T06:42:45.492Z,18.25
2017-11-14T06:45:16.818Z,21.98
2017-11-14T06:47:44.580Z,21.70
2017-11-14T06:50:12.187Z,19.15
2017-11-14T06:52:40.957Z,18.25
2017-11-14T06:55:08.765Z,18.65
2017-11-14T06:57:39.999Z,18.52
2017-11-14T07:00:07.675Z,20.00
2017-11-14T07:02:35.435Z,19.17
2017-11-14T07:05:06.698Z,17.42
2017-11-14T07:07:35.582Z,18.92
2017-11-14T07:10:05.084Z,22.95
2017-11-14T07:12:33.069Z,24.50
2017-11-14T07:15:00.948Z,22.20
2017-11-14T07:17:29.339Z,23.00
2017-11-14T07:19:58.549Z,23.40
2017-11-14T07:22:26.176Z,23.85
2017-11-14T07:24:53.776Z,22.58
2017-11-14T07:27:21.655Z,20.75
2017-11-14T07:29:49.263Z,21.75
2017-11-14T07:32:17.403Z,21.92
2017-11-14T07:34:45.771Z,21.90
2017-11-14T07:37:13.649Z,21.92
2017-11-14T07:39:41.252Z,22.83
2017-11-14T07:42:08.888Z,22.15
2017-11-14T07:44:36.498Z,22.60
2017-11-14T07:47:04.102Z,24.92
2017-11-14T07:49:31.695Z,22.05
2017-11-14T07:51:59.288Z,23.40
2017-11-14T07:54:26.891Z,23.95
2017-11-14T07:56:54.489Z,22.95
2017-11-14T07:59:22.853Z,23.98
2017-11-14T08:01:50.453Z,23.15
2017-11-14T08:04:18.104Z,22.83
2017-11-14T08:06:45.696Z,23.10
2017-11-14T08:09:13.297Z,21.95
2017-11-14T08:11:40.910Z,20.40
2017-11-14T08:14:08.501Z,21.85
2017-11-14T08:16:36.052Z,21.35
2017-11-14T08:19:03.665Z,21.35
2017-11-14T08:21:31.266Z,23.25
2017-11-14T08:23:58.868Z,24.37
2017-11-14T08:26:26.513Z,21.85
2017-11-14T08:28:54.083Z,22.77
2017-11-14T08:31:21.673Z,21.05
2017-11-14T08:33:49.272Z,21.92
2017-11-14T08:36:16.823Z,19.30
2017-11-14T08:38:44.416Z,19.27
2017-11-14T08:41:12.026Z,19.85
2017-11-14T08:43:39.621Z,21.10
2017-11-14T08:46:07.256Z,22.35
2017-11-14T08:48:35.578Z,20.30
2017-11-14T08:51:03.170Z,17.87
2017-11-14T08:53:31.557Z,18.70
2017-11-14T08:55:59.172Z,16.50
2017-11-14T08:58:26.795Z,16.77
2017-11-14T09:00:54.394Z,18.60
2017-11-14T09:03:21.985Z,17.52
2017-11-14T09:05:49.619Z,19.50
2017-11-14T09:08:17.227Z,19.70
2017-11-14T09:10:44.794Z,14.10
2017-11-14T09:13:12.378Z,15.75
2017-11-14T09:15:40.039Z,14.57
2017-11-14T09:18:07.652Z,14.23
2017-11-14T09:20:36.078Z,14.82
2017-11-14T09:23:03.712Z,13.68
2017-11-14T09:25:31.333Z,13.20
2017-11-14T09:27:58.946Z,11.70
2017-11-14T09:30:27.309Z,12.57
2017-11-14T09:32:54.993Z,13.27
2017-11-14T09:35:22.623Z,12.93
2017-11-14T09:37:50.233Z,12.05
2017-11-14T09:40:17.839Z,13.80
2017-11-14T09:42:46.217Z,13.38
2017-11-14T09:45:14.622Z,14.20
2017-11-14T09:47:42.216Z,13.65
2017-11-14T09:50:09.835Z,14.63
2017-11-14T09:52:37.482Z,19.30
2017-11-14T09:55:05.856Z,23.52
2017-11-14T09:57:33.526Z,34.33
2017-11-14T10:00:01.122Z,30.25
2017-11-14T10:02:28.723Z,29.30
2017-11-14T10:04:56.335Z,29.00
2017-11-14T10:07:23.961Z,26.12
2017-11-14T10:09:52.542Z,18.35
2017-11-14T10:12:20.886Z,18.17
2017-11-14T10:14:48.505Z,15.93
2017-11-14T10:17:16.120Z,14.25
2017-11-14T10:19:43.716Z,19.92
2017-11-14T10:22:11.344Z,23.80
2017-11-14T10:24:38.953Z,14.18
2017-11-14T10:27:06.533Z,13.90
2017-11-14T10:29:34.136Z,12.77
2017-11-14T10:32:01.842Z,14.93
2017-11-14T10:34:29.413Z,14.63
2017-11-14T10:36:56.943Z,19.35
2017-11-14T10:39:25.354Z,15.20
2017-11-14T10:41:52.963Z,12.70
2017-11-14T10:44:20.578Z,39.45
2017-11-14T10:46:48.152Z,15.88
2017-11-14T10:49:15.763Z,10.75
2017-11-14T10:51:43.387Z,23.15
2017-11-14T10:54:11.004Z,19.02
2017-11-14T10:56:38.587Z,12.25
2017-11-14T10:59:06.225Z,10.52
2017-11-14T11:01:33.850Z,10.27
2017-11-14T11:04:01.445Z,10.05
2017-11-14T11:06:29.053Z,11.30
2017-11-14T11:08:56.631Z,10.57
2017-11-14T11:11:24.248Z,8.20
2017-11-14T11:13:51.963Z,7.18
2017-11-14T11:16:32.597Z,7.32
2017-11-14T11:19:00.225Z,6.93
2017-11-14T11:21:27.853Z,7.75
2017-11-14T11:23:55.455Z,7.75
2017-11-14T11:26:23.124Z,7.10
2017-11-14T11:28:50.724Z,7.87
2017-11-14T11:31:18.328Z,8.82
2017-11-14T11:33:45.956Z,9.60
2017-11-14T11:36:13.552Z,9.23
2017-11-14T11:38:41.144Z,9.20
2017-11-14T11:41:08.753Z,8.82
2017-11-14T11:43:37.120Z,8.48
2017-11-14T11:46:04.712Z,7.70
2017-11-14T11:48:32.275Z,7.25
2017-11-14T11:50:59.872Z,7.57
2017-11-14T11:53:27.501Z,8.02
2017-11-14T11:55:55.113Z,7.03
2017-11-14T11:58:22.666Z,7.50
2017-11-14T12:00:50.344Z,6.62
2017-11-14T12:03:17.985Z,7.07
2017-11-14T12:05:45.602Z,7.15
2017-11-14T12:08:13.260Z,6.05
2017-11-14T12:10:40.886Z,6.93
2017-11-14T12:13:08.490Z,6.60
2017-11-14T12:15:36.084Z,7.75
2017-11-14T12:18:03.697Z,6.40
2017-11-14T12:20:31.302Z,6.82
2017-11-14T12:22:58.881Z,7.10
2017-11-14T12:25:26.489Z,7.75
2017-11-14T12:27:54.161Z,7.15
2017-11-14T12:30:21.787Z,8.80
2017-11-14T12:32:49.400Z,8.77
2017-11-14T12:35:17.048Z,7.60
2017-11-14T12:37:45.057Z,7.57
2017-11-14T12:40:15.760Z,7.05
2017-11-14T12:42:43.358Z,9.88
2017-11-14T12:45:10.958Z,11.43
2017-11-14T12:47:38.524Z,17.75
2017-11-14T12:50:06.120Z,18.70
2017-11-14T12:52:33.715Z,8.75
2017-11-14T12:55:02.077Z,9.82
2017-11-14T12:57:29.669Z,8.27
2017-11-14T12:59:57.305Z,12.90
2017-11-14T13:02:24.901Z,12.27
2017-11-14T13:04:52.517Z,15.60
2017-11-14T13:07:20.124Z,21.65
2017-11-14T13:09:47.730Z,13.30
2017-11-14T13:12:15.373Z,23.73
2017-11-14T13:14:42.977Z,20.70
2017-11-14T13:17:10.592Z,14.90
2017-11-14T13:19:38.196Z,9.10
2017-11-14T13:22:05.789Z,9.20
2017-11-14T13:24:34.489Z,7.87
2017-11-14T13:27:02.053Z,8.55
2017-11-14T13:29:29.692Z,7.35
2017-11-14T13:31:57.373Z,7.68
2017-11-14T13:34:25.103Z,7.37
2017-11-14T13:36:53.769Z,8.60
2017-11-14T13:39:24.735Z,7.80
2017-11-14T13:41:52.592Z,7.00
2017-11-14T13:44:21.174Z,6.90
2017-11-14T13:46:49.337Z,6.78
2017-11-14T13:49:17.317Z,10.45
2017-11-14T13:51:45.253Z,7.20
2017-11-14T13:54:13.363Z,6.75
2017-11-14T13:56:41.813Z,6.28
2017-11-14T13:59:10.365Z,5.05
2017-11-14T14:01:37.978Z,7.07
2017-11-14T14:04:07.033Z,4.95
2017-11-14T14:06:36.522Z,5.53
2017-11-14T14:09:05.112Z,5.80
2017-11-14T14:11:33.136Z,6.18
2017-11-14T14:14:01.204Z,5.43
2017-11-14T14:16:29.188Z,6.28
2017-11-14T14:18:57.237Z,5.18
2017-11-14T14:21:25.073Z,4.50
2017-11-14T14:23:53.115Z,4.93
2017-11-14T14:26:21.211Z,5.25
2017-11-14T14:28:50.037Z,4.62
2017-11-14T14:31:18.172Z,5.25
2017-11-14T14:33:46.289Z,5.43
2017-11-14T14:36:14.727Z,9.63
2017-11-14T14:38:42.975Z,10.13
2017-11-14T14:41:11.282Z,6.68
2017-11-14T14:43:40.076Z,31.87
2017-11-14T14:46:08.183Z,21.25
2017-11-14T14:48:36.396Z,42.50
2017-11-14T14:51:04.594Z,23.75
2017-11-14T14:53:32.765Z,32.45
2017-11-14T14:56:01.010Z,17.80
2017-11-14T14:58:29.012Z,13.90
2017-11-14T15:00:57.091Z,8.70
2017-11-14T15:03:25.755Z,9.32
2017-11-14T15:05:53.826Z,7.00
2017-11-14T15:08:22.063Z,6.68
2017-11-14T15:10:50.196Z,5.57
2017-11-14T15:13:18.310Z,6.30
2017-11-14T15:15:47.408Z,4.82
2017-11-14T15:18:15.532Z,5.47
2017-11-14T15:20:43.706Z,5.05
2017-11-14T15:23:12.010Z,4.45
2017-11-14T15:25:40.875Z,5.22
2017-11-14T15:28:09.081Z,5.72
2017-11-14T15:30:37.326Z,5.57
2017-11-14T15:33:05.421Z,6.37
2017-11-14T15:35:33.572Z,14.05
2017-11-14T15:38:01.684Z,23.58
2017-11-14T15:40:29.817Z,20.20
2017-11-14T15:43:02.639Z,22.65
2017-11-14T15:45:31.901Z,25.50
2017-11-14T15:48:01.187Z,15.27
2017-11-14T15:50:37.238Z,21.45
2017-11-14T15:53:05.471Z,11.23
2017-11-14T15:55:36.296Z,21.25
2017-11-14T15:58:06.363Z,24.20
2017-11-14T16:00:36.344Z,7.62
2017-11-14T16:03:04.624Z,8.55
2017-11-14T16:05:32.909Z,6.70
2017-11-14T16:08:01.189Z,6.70
2017-11-14T16:10:29.515Z,6.62
2017-11-14T16:12:57.657Z,6.93
2017-11-14T16:15:25.864Z,9.10
2017-11-14T16:17:54.346Z,7.28
2017-11-14T16:20:22.490Z,8.25
2017-11-14T16:22:51.762Z,8.18
2017-11-14T16:25:20.062Z,9.88
2017-11-14T16:27:48.199Z,12.27
2017-11-14T16:30:16.487Z,13.02
2017-11-14T16:32:44.654Z,10.15
2017-11-14T16:35:12.953Z,13.20
2017-11-14T16:37:43.162Z,14.38
2017-11-14T16:40:14.976Z,25.20
2017-11-14T16:42:43.684Z,16.95
2017-11-14T16:45:12.792Z,19.05
2017-11-14T16:47:41.650Z,12.52
2017-11-14T16:50:10.316Z,13.02
2017-11-14T16:52:38.710Z,15.55
2017-11-14T16:55:07.609Z,12.63
2017-11-14T16:57:36.196Z,11.57
2017-11-14T17:00:06.087Z,11.65
2017-11-14T17:02:34.239Z,13.62
2017-11-14T17:05:03.859Z,15.07
2017-11-14T17:07:32.677Z,12.68
2017-11-14T17:10:00.992Z,12.20
2017-11-14T17:12:29.481Z,13.77
2017-11-14T17:14:57.710Z,17.87
2017-11-14T17:17:26.156Z,23.52
2017-11-14T17:19:55.716Z,28.25
2017-11-14T17:22:23.898Z,25.77
2017-11-14T17:24:52.036Z,26.92
2017-11-14T17:27:20.247Z,29.48
2017-11-14T17:29:48.431Z,29.70
2017-11-14T17:32:16.724Z,26.42
2017-11-14T17:34:45.976Z,18.98
2017-11-14T17:37:14.689Z,14.73
2017-11-14T17:51:37.552Z,14.00
2017-11-14T18:00:01.516Z,12.90
2017-11-14T18:08:26.034Z,13.27
2017-11-14T18:14:13.669Z,12.60
2017-11-14T18:31:14.065Z,14.18
2017-11-14T18:33:50.439Z,13.90
2017-11-14T18:36:20.631Z,16.12
2017-11-14T18:38:49.287Z,15.52
2017-11-14T18:41:18.931Z,15.73
2017-11-14T18:43:47.305Z,13.88
2017-11-14T18:49:24.718Z,15.18
2017-11-14T18:51:53.920Z,13.93
2017-11-14T18:54:22.262Z,16.30
2017-11-14T18:56:50.477Z,15.43
2017-11-14T18:59:21.589Z,16.65
2017-11-14T19:01:49.811Z,18.37
2017-11-14T19:04:18.543Z,15.90
2017-11-14T19:06:46.819Z,15.15
2017-11-14T19:09:16.943Z,15.98
2017-11-14T19:11:52.841Z,14.27
2017-11-14T19:14:21.154Z,15.57
2017-11-14T19:16:50.690Z,15.60
2017-11-14T19:19:18.976Z,15.40
2017-11-14T19:21:47.341Z,14.87
2017-11-14T19:24:16.252Z,15.15
2017-11-14T19:26:44.877Z,13.32
2017-11-14T19:31:58.029Z,12.55
2017-11-14T19:34:27.433Z,10.23
2017-11-14T19:36:56.488Z,11.65
2017-11-14T19:39:27.474Z,13.60
2017-11-14T19:41:57.568Z,13.02
2017-11-14T19:44:32.039Z,14.77
2017-11-14T19:47:02.229Z,15.63
2017-11-14T19:49:31.436Z,13.50
2017-11-14T19:52:02.585Z,12.00
2017-11-14T19:54:34.361Z,12.90
2017-11-14T19:57:09.566Z,11.15
2017-11-14T19:59:38.676Z,9.63
2017-11-14T20:02:09.168Z,9.68
2017-11-14T20:04:38.527Z,9.18
2017-11-14T20:07:07.717Z,9.57
2017-11-14T20:09:37.575Z,8.10
2017-11-14T20:12:06.245Z,9.20
2017-11-14T20:14:34.763Z,10.48
2017-11-14T20:17:03.336Z,10.40
2017-11-14T20:19:31.717Z,7.72
2017-11-14T20:22:00.758Z,8.20
2017-11-14T20:24:29.443Z,10.32
2017-11-14T20:26:58.761Z,8.82
2017-11-14T20:29:28.298Z,8.98
2017-11-14T20:31:57.805Z,8.45
2017-11-14T20:34:50.946Z,7.65
2017-11-14T20:37:25.082Z,8.40
2017-11-14T20:39:53.245Z,7.18
2017-11-14T20:42:38.633Z,8.77
2017-11-14T20:45:07.653Z,8.80
2017-11-14T20:47:39.848Z,8.75
2017-11-14T20:50:11.520Z,9.15
2017-11-14T20:52:39.719Z,8.35
2017-11-14T20:55:08.867Z,8.85
2017-11-14T20:57:37.399Z,8.10
2017-11-14T21:00:05.728Z,8.45
2017-11-14T21:02:44.260Z,9.63
2017-11-14T21:05:12.574Z,9.07
2017-11-14T21:07:40.929Z,9.18
2017-11-14T21:10:09.117Z,8.85
2017-11-14T21:12:37.296Z,9.23
2017-11-14T21:15:07.641Z,9.38
2017-11-14T21:17:37.014Z,8.60
2017-11-14T21:20:05.425Z,9.70
2017-11-14T21:22:34.291Z,8.55
2017-11-14T21:25:02.840Z,9.23
2017-11-14T21:30:37.135Z,9.98
2017-11-14T21:33:15.359Z,8.75
2017-11-14T21:35:43.665Z,9.25
2017-11-14T21:38:23.240Z,9.73
2017-11-14T21:40:51.371Z,9.98
2017-11-14T21:43:19.547Z,8.07
2017-11-14T21:45:47.714Z,9.50
2017-11-14T21:48:15.920Z,9.55
2017-11-14T21:50:43.688Z,9.98
2017-11-14T21:53:11.456Z,9.75
2017-11-14T21:55:39.048Z,8.38
2017-11-14T21:58:07.365Z,8.75
2017-11-14T22:00:35.011Z,9.18
2017-11-14T22:03:02.779Z,8.80
2017-11-14T22:05:30.593Z,7.78
2017-11-14T22:07:58.194Z,7.80
2017-11-14T22:10:26.736Z,7.70
2017-11-14T22:12:54.309Z,6.85
2017-11-14T22:15:23.128Z,7.72
2017-11-14T22:17:50.721Z,7.22
2017-11-14T22:20:18.377Z,6.50
2017-11-14T22:22:45.970Z,6.70
2017-11-14T22:25:13.520Z,6.20
2017-11-14T22:27:41.130Z,7.85
2017-11-14T22:30:08.760Z,8.05
2017-11-14T22:32:36.361Z,8.68
2017-11-14T22:35:03.978Z,9.38
2017-11-14T22:37:31.591Z,7.72
2017-11-14T22:39:59.292Z,7.43
2017-11-14T22:42:27.002Z,7.93
2017-11-14T22:44:54.635Z,8.52
2017-11-14T22:47:23.000Z,9.10
2017-11-14T22:49:50.636Z,9.48
2017-11-14T22:52:18.959Z,9.70
2017-11-14T22:54:47.316Z,9.38
2017-11-14T22:57:14.916Z,8.65
2017-11-14T22:59:42.556Z,10.32
2017-11-14T23:02:11.035Z,9.40
2017-11-14T23:04:39.622Z,10.63
2017-11-14T23:07:07.975Z,9.90
2017-11-14T23:09:36.207Z,10.77
2017-11-14T23:12:03.857Z,10.25
2017-11-14T23:14:31.469Z,9.15
2017-11-14T23:16:59.033Z,10.35
2017-11-14T23:19:26.635Z,10.23
2017-11-14T23:21:54.268Z,11.05
2017-11-14T23:24:21.800Z,10.10
2017-11-14T23:26:49.491Z,9.13
2017-11-14T23:29:17.064Z,10.40
2017-11-14T23:31:45.396Z,10.65
2017-11-14T23:34:13.184Z,10.45
2017-11-14T23:36:40.787Z,9.60
2017-11-14T23:39:08.411Z,11.18
2017-11-14T23:41:36.737Z,9.65
2017-11-14T23:44:04.661Z,9.65
2017-11-14T23:46:32.329Z,9.13
2017-11-14T23:49:00.721Z,10.05
2017-11-14T23:51:29.687Z,10.57
2017-11-14T23:53:57.210Z,10.40
2017-11-14T23:56:24.790Z,10.43
2017-11-14T23:58:52.412Z,10.00
